Time;durP1;ratioP1;P1;durP2;ratioP2;P2;SDS_P1;SDS_P2;PMS_P1;PMS_P2;Temp;Humidity;BMP_temperature;BMP_pressure;BME280_temperature;BME280_humidity;BME280_pressure;Samples;Min_cycle;Max_cycle;Signal;HPM_P1;HPM_P2
2023/10/23 00:01:38;;;;;;;13.65;8.60;;;;;;;;;;5083573;28;20048;-84
2023/10/23 00:04:04;;;;;;;12.35;7.80;;;;;;;;;;5063896;28;20071;-84
2023/10/23 00:06:30;;;;;;;12.23;8.60;;;;;;;;;;5081056;28;20065;-84
2023/10/23 00:08:56;;;;;;;10.85;8.75;;;;;;;;;;5084770;28;20120;-84
2023/10/23 00:11:23;;;;;;;9.80;8.35;;;;;;;;;;5083111;28;20051;-82
2023/10/23 00:13:49;;;;;;;13.40;8.35;;;;;;;;;;5083738;28;20170;-83
2023/10/23 00:16:15;;;;;;;11.15;7.68;;;;;;;;;;5084907;28;20401;-82
2023/10/23 00:18:41;;;;;;;9.32;7.97;;;;;;;;;;5084355;28;20036;-83
2023/10/23 00:21:09;;;;;;;11.68;7.85;;;;;;;;;;5078479;28;20041;-83
2023/10/23 00:23:35;;;;;;;12.43;9.25;;;;;;;;;;5060856;28;20051;-83
2023/10/23 00:26:01;;;;;;;12.48;9.68;;;;;;;;;;5082150;28;20501;-83
2023/10/23 00:28:27;;;;;;;12.15;9.07;;;;;;;;;;5082345;28;20061;-83
2023/10/23 00:30:53;;;;;;;14.00;9.77;;;;;;;;;;5080235;28;20044;-83
2023/10/23 00:33:19;;;;;;;15.10;8.45;;;;;;;;;;5067869;28;20497;-83
2023/10/23 00:35:45;;;;;;;13.95;9.77;;;;;;;;;;5080497;28;20051;-82
2023/10/23 00:38:11;;;;;;;13.38;9.90;;;;;;;;;;5081178;28;20041;-82
2023/10/23 00:40:37;;;;;;;12.38;8.40;;;;;;;;;;5084253;28;20047;-83
2023/10/23 00:43:13;;;;;;;12.25;10.18;;;;;;;;;;5084538;28;20044;-83
2023/10/23 00:45:44;;;;;;;17.17;11.48;;;;;;;;;;5089566;28;20059;-83
2023/10/23 00:48:10;;;;;;;11.40;8.77;;;;;;;;;;5072911;28;20047;-83
2023/10/23 00:50:37;;;;;;;14.82;9.85;;;;;;;;;;5084323;28;20048;-82
2023/10/23 00:53:03;;;;;;;14.30;10.43;;;;;;;;;;5074265;28;20398;-83
2023/10/23 00:55:29;;;;;;;16.20;10.70;;;;;;;;;;5076363;28;20056;-83
2023/10/23 00:57:55;;;;;;;13.68;9.77;;;;;;;;;;5082148;28;20036;-83
2023/10/23 01:00:22;;;;;;;14.30;9.60;;;;;;;;;;5084413;28;20048;-82
2023/10/23 01:02:48;;;;;;;15.10;10.57;;;;;;;;;;5083375;28;20064;-83
2023/10/23 01:05:14;;;;;;;12.07;9.50;;;;;;;;;;5082149;28;20106;-83
2023/10/23 01:07:40;;;;;;;13.73;9.20;;;;;;;;;;5083244;28;20041;-83
2023/10/23 01:10:06;;;;;;;14.23;9.98;;;;;;;;;;5082713;28;20451;-84
2023/10/23 01:12:33;;;;;;;13.85;9.55;;;;;;;;;;5083495;28;20456;-83
2023/10/23 01:14:59;;;;;;;11.77;10.27;;;;;;;;;;5082821;28;20045;-83
2023/10/23 01:17:25;;;;;;;15.23;10.18;;;;;;;;;;5082077;28;20047;-83
2023/10/23 01:19:51;;;;;;;12.02;9.98;;;;;;;;;;5082795;28;20037;-83
2023/10/23 01:22:17;;;;;;;14.15;10.55;;;;;;;;;;5077202;28;20045;-82
2023/10/23 01:24:45;;;;;;;12.55;9.35;;;;;;;;;;5080849;28;20048;-83
2023/10/23 01:27:11;;;;;;;14.90;10.25;;;;;;;;;;5062973;28;20052;-83
2023/10/23 01:29:37;;;;;;;18.25;10.40;;;;;;;;;;5080571;28;20071;-83
2023/10/23 01:32:04;;;;;;;12.45;9.90;;;;;;;;;;5078701;28;20386;-83
2023/10/23 01:34:30;;;;;;;14.10;9.98;;;;;;;;;;5071520;28;20053;-84
2023/10/23 01:36:56;;;;;;;14.93;10.25;;;;;;;;;;5082715;28;20067;-83
2023/10/23 01:39:22;;;;;;;15.32;10.10;;;;;;;;;;5047758;28;20458;-83
2023/10/23 01:41:48;;;;;;;14.73;10.32;;;;;;;;;;5046987;28;20032;-83
2023/10/23 01:44:14;;;;;;;15.88;9.98;;;;;;;;;;5071823;28;20048;-84
2023/10/23 01:46:40;;;;;;;15.55;10.02;;;;;;;;;;5082503;28;20442;-83
2023/10/23 01:49:06;;;;;;;13.70;9.70;;;;;;;;;;5083240;28;20060;-83
2023/10/23 01:51:32;;;;;;;12.57;9.75;;;;;;;;;;5083284;28;20037;-83
2023/10/23 01:53:58;;;;;;;12.82;10.00;;;;;;;;;;5081494;28;20044;-83
2023/10/23 01:56:25;;;;;;;14.93;9.65;;;;;;;;;;5081339;28;20047;-84
2023/10/23 01:58:51;;;;;;;13.45;9.07;;;;;;;;;;5081808;28;20040;-84
2023/10/23 02:01:22;;;;;;;12.32;9.07;;;;;;;;;;5082059;28;20100;-84
2023/10/23 02:03:49;;;;;;;10.43;8.80;;;;;;;;;;5078365;28;20444;-83
2023/10/23 02:06:15;;;;;;;11.20;9.02;;;;;;;;;;5073700;28;20045;-83
2023/10/23 02:08:41;;;;;;;15.50;9.63;;;;;;;;;;5063529;28;20444;-83
2023/10/23 02:11:08;;;;;;;10.90;8.68;;;;;;;;;;5084660;28;20051;-83
2023/10/23 02:13:34;;;;;;;10.75;8.82;;;;;;;;;;5087313;28;20049;-83
2023/10/23 02:16:00;;;;;;;10.65;8.40;;;;;;;;;;5085974;28;20056;-83
2023/10/23 02:18:26;;;;;;;13.43;9.50;;;;;;;;;;5069226;28;20052;-83
2023/10/23 02:20:52;;;;;;;14.00;8.68;;;;;;;;;;5086425;28;20047;-83
2023/10/23 02:23:18;;;;;;;12.13;8.13;;;;;;;;;;5086290;28;20133;-83
2023/10/23 02:25:46;;;;;;;11.60;7.30;;;;;;;;;;5084253;28;20047;-83
2023/10/23 02:28:13;;;;;;;9.90;7.85;;;;;;;;;;5084968;28;20041;-83
2023/10/23 02:30:39;;;;;;;11.63;7.97;;;;;;;;;;5085117;28;20602;-83
2023/10/23 02:33:06;;;;;;;11.13;8.30;;;;;;;;;;5085258;28;20040;-83
2023/10/23 02:35:34;;;;;;;11.18;8.80;;;;;;;;;;5084740;28;20055;-83
2023/10/23 02:38:01;;;;;;;10.90;8.63;;;;;;;;;;5052713;28;20037;-83
2023/10/23 02:40:27;;;;;;;11.82;10.18;;;;;;;;;;5052401;28;20041;-84
2023/10/23 02:42:53;;;;;;;11.02;9.65;;;;;;;;;;5084831;28;20471;-83
2023/10/23 02:45:19;;;;;;;13.25;10.13;;;;;;;;;;5081156;28;20044;-82
2023/10/23 02:47:45;;;;;;;14.65;10.07;;;;;;;;;;5061123;28;20067;-84
2023/10/23 02:50:11;;;;;;;11.95;10.35;;;;;;;;;;5072459;28;20052;-84
2023/10/23 02:52:37;;;;;;;11.65;9.88;;;;;;;;;;5083188;28;20087;-83
2023/10/23 02:55:04;;;;;;;12.23;10.13;;;;;;;;;;5074546;28;20044;-84
2023/10/23 02:57:30;;;;;;;14.55;10.05;;;;;;;;;;5084980;28;20037;-83
2023/10/23 02:59:57;;;;;;;12.25;10.50;;;;;;;;;;5079783;28;20134;-84
2023/10/23 03:02:23;;;;;;;13.45;10.15;;;;;;;;;;5083346;28;20098;-84
2023/10/23 03:04:49;;;;;;;11.50;9.80;;;;;;;;;;5084659;28;20044;-84
2023/10/23 03:07:15;;;;;;;13.30;10.40;;;;;;;;;;5067997;28;20065;-82
2023/10/23 03:09:41;;;;;;;11.63;10.32;;;;;;;;;;5074909;28;20094;-82
2023/10/23 03:12:07;;;;;;;10.70;9.27;;;;;;;;;;5068119;28;20457;-82
2023/10/23 03:14:33;;;;;;;12.07;9.07;;;;;;;;;;5077627;28;20063;-83
2023/10/23 03:16:59;;;;;;;20.15;10.32;;;;;;;;;;5067922;28;20420;-83
2023/10/23 03:19:25;;;;;;;10.50;8.57;;;;;;;;;;5083884;28;20389;-83
2023/10/23 03:21:52;;;;;;;14.00;9.25;;;;;;;;;;5082897;28;20044;-83
2023/10/23 03:24:19;;;;;;;17.88;9.50;;;;;;;;;;5083094;28;20096;-84
2023/10/23 03:26:45;;;;;;;30.98;8.93;;;;;;;;;;5073801;28;20044;-83
2023/10/23 03:29:11;;;;;;;24.38;8.32;;;;;;;;;;5080974;28;20060;-83
2023/10/23 03:31:37;;;;;;;20.20;8.68;;;;;;;;;;5048481;28;20075;-83
2023/10/23 03:34:03;;;;;;;14.77;8.93;;;;;;;;;;5081036;28;20053;-84
2023/10/23 03:36:30;;;;;;;22.75;10.30;;;;;;;;;;5083779;28;20044;-83
2023/10/23 03:38:56;;;;;;;9.90;8.90;;;;;;;;;;5067785;28;20041;-83
2023/10/23 03:41:22;;;;;;;15.38;9.35;;;;;;;;;;5080202;28;20078;-83
2023/10/23 03:43:48;;;;;;;10.30;9.23;;;;;;;;;;5065770;28;20049;-83
2023/10/23 03:46:14;;;;;;;10.57;9.48;;;;;;;;;;5083247;28;20056;-83
2023/10/23 03:48:40;;;;;;;11.35;10.15;;;;;;;;;;5079591;28;20045;-83
2023/10/23 03:51:06;;;;;;;12.15;9.98;;;;;;;;;;5084787;28;20059;-83
2023/10/23 03:53:32;;;;;;;16.45;11.40;;;;;;;;;;5075751;28;20048;-83
2023/10/23 03:55:58;;;;;;;13.13;11.32;;;;;;;;;;5082795;28;20504;-83
2023/10/23 03:58:24;;;;;;;12.88;11.20;;;;;;;;;;5049985;28;20044;-84
2023/10/23 04:00:54;;;;;;;13.95;11.52;;;;;;;;;;5078465;28;20041;-83
2023/10/23 04:03:21;;;;;;;14.27;11.40;;;;;;;;;;5082020;28;20088;-83
2023/10/23 04:05:47;;;;;;;17.38;13.18;;;;;;;;;;5073858;28;20058;-83
2023/10/23 04:08:13;;;;;;;19.98;15.18;;;;;;;;;;5083894;28;20037;-83
2023/10/23 04:10:45;;;;;;;14.57;12.02;;;;;;;;;;5085523;28;20138;-83
2023/10/23 04:13:11;;;;;;;14.00;11.75;;;;;;;;;;5066756;28;20469;-83
2023/10/23 04:15:37;;;;;;;17.15;13.35;;;;;;;;;;5067003;28;20048;-83
2023/10/23 04:18:04;;;;;;;13.50;11.88;;;;;;;;;;5085344;28;20041;-84
2023/10/23 04:20:30;;;;;;;15.82;12.57;;;;;;;;;;5085256;28;20072;-83
2023/10/23 04:22:56;;;;;;;14.73;11.77;;;;;;;;;;5085592;28;20044;-84
2023/10/23 04:25:22;;;;;;;18.73;13.30;;;;;;;;;;5084555;28;20072;-82
2023/10/23 04:27:48;;;;;;;16.77;12.07;;;;;;;;;;5084591;28;20040;-83
2023/10/23 04:30:16;;;;;;;13.57;12.00;;;;;;;;;;5082450;28;20061;-83
2023/10/23 04:32:42;;;;;;;13.85;10.90;;;;;;;;;;5071510;28;20052;-83
2023/10/23 04:35:08;;;;;;;19.30;13.20;;;;;;;;;;5076644;28;20040;-83
2023/10/23 04:37:34;;;;;;;14.10;11.25;;;;;;;;;;5085193;28;20048;-83
2023/10/23 04:40:00;;;;;;;15.77;13.82;;;;;;;;;;5065686;28;20048;-83
2023/10/23 04:42:26;;;;;;;18.58;14.52;;;;;;;;;;5083201;28;20051;-83
2023/10/23 04:44:52;;;;;;;22.15;16.52;;;;;;;;;;5083288;28;20309;-83
2023/10/23 04:47:18;;;;;;;22.70;16.83;;;;;;;;;;5083289;28;20044;-83
2023/10/23 04:49:47;;;;;;;17.08;13.38;;;;;;;;;;5083386;28;20054;-83
2023/10/23 04:52:13;;;;;;;15.57;12.00;;;;;;;;;;5079857;28;20044;-83
2023/10/23 04:54:39;;;;;;;19.95;14.23;;;;;;;;;;5067399;28;20048;-83
2023/10/23 04:57:06;;;;;;;14.55;12.25;;;;;;;;;;5084589;28;20032;-83
2023/10/23 04:59:35;;;;;;;16.63;12.15;;;;;;;;;;5067054;28;20048;-82
2023/10/23 05:02:01;;;;;;;14.00;12.02;;;;;;;;;;5083927;28;20417;-82
2023/10/23 05:04:30;;;;;;;14.73;11.93;;;;;;;;;;5082955;28;20123;-83
2023/10/23 05:06:56;;;;;;;15.65;11.70;;;;;;;;;;5065133;28;20470;-82
2023/10/23 05:09:22;;;;;;;18.70;13.32;;;;;;;;;;5083624;28;20040;-82
2023/10/23 05:11:48;;;;;;;16.20;13.02;;;;;;;;;;5083353;28;20044;-83
2023/10/23 05:14:14;;;;;;;14.52;12.27;;;;;;;;;;5083802;28;20486;-83
2023/10/23 05:16:41;;;;;;;16.52;13.20;;;;;;;;;;5084034;28;20036;-83
2023/10/23 05:19:08;;;;;;;24.15;13.73;;;;;;;;;;5067426;28;20119;-83
2023/10/23 05:21:34;;;;;;;17.75;13.48;;;;;;;;;;5074256;28;20053;-83
2023/10/23 05:24:00;;;;;;;16.92;12.60;;;;;;;;;;5083245;28;20032;-84
2023/10/23 05:26:26;;;;;;;16.35;12.38;;;;;;;;;;5082390;28;20066;-83
2023/10/23 05:28:54;;;;;;;14.57;11.52;;;;;;;;;;5083734;28;20064;-83
2023/10/23 05:31:20;;;;;;;19.83;13.40;;;;;;;;;;5064927;28;20044;-83
2023/10/23 05:33:46;;;;;;;16.83;12.60;;;;;;;;;;5072159;28;20460;-83
2023/10/23 05:36:12;;;;;;;16.48;12.60;;;;;;;;;;5063482;28;20039;-84
2023/10/23 05:38:38;;;;;;;17.58;12.65;;;;;;;;;;5077193;28;20069;-84
2023/10/23 05:41:09;;;;;;;16.17;12.38;;;;;;;;;;5083070;28;20047;-83
2023/10/23 05:43:36;;;;;;;17.83;13.15;;;;;;;;;;5081653;28;20045;-83
2023/10/23 05:46:03;;;;;;;16.80;13.15;;;;;;;;;;5082980;28;20044;-83
2023/10/23 05:48:30;;;;;;;16.45;12.88;;;;;;;;;;5068378;28;20078;-83
2023/10/23 05:50:57;;;;;;;17.00;12.85;;;;;;;;;;5082354;28;20044;-83
2023/10/23 05:53:23;;;;;;;19.45;12.95;;;;;;;;;;5084234;28;20044;-84
2023/10/23 05:55:50;;;;;;;14.80;12.02;;;;;;;;;;5048824;28;20037;-84
2023/10/23 05:58:16;;;;;;;13.25;11.70;;;;;;;;;;5082678;28;20543;-83
2023/10/23 06:00:42;;;;;;;17.55;12.73;;;;;;;;;;5072259;28;20040;-83
2023/10/23 06:03:08;;;;;;;14.07;11.93;;;;;;;;;;5080557;28;20045;-83
2023/10/23 06:05:39;;;;;;;14.82;11.57;;;;;;;;;;5080064;28;20049;-83
2023/10/23 06:08:05;;;;;;;17.55;13.73;;;;;;;;;;5080623;28;20045;-83
2023/10/23 06:10:31;;;;;;;18.30;13.48;;;;;;;;;;5081267;28;20049;-84
2023/10/23 06:12:57;;;;;;;17.70;14.00;;;;;;;;;;5080064;28;20466;-83
2023/10/23 06:15:23;;;;;;;16.38;13.70;;;;;;;;;;5075009;28;20505;-83
2023/10/23 06:17:49;;;;;;;15.32;13.38;;;;;;;;;;5080457;28;20400;-83
2023/10/23 06:20:15;;;;;;;17.63;13.40;;;;;;;;;;5080157;28;20044;-83
2023/10/23 06:22:42;;;;;;;17.90;13.95;;;;;;;;;;5063052;28;21106;-83
2023/10/23 06:25:08;;;;;;;17.23;12.50;;;;;;;;;;5061924;28;20068;-83
2023/10/23 06:27:34;;;;;;;18.02;13.45;;;;;;;;;;5080629;28;20053;-83
2023/10/23 06:30:00;;;;;;;18.38;13.18;;;;;;;;;;5079095;28;20377;-83
2023/10/23 06:32:26;;;;;;;17.73;13.90;;;;;;;;;;5073656;28;20139;-83
2023/10/23 06:34:54;;;;;;;16.67;12.60;;;;;;;;;;5083021;28;20119;-83
2023/10/23 06:37:20;;;;;;;20.92;14.68;;;;;;;;;;5081070;28;20106;-83
2023/10/23 06:39:46;;;;;;;14.90;11.80;;;;;;;;;;5081086;28;20048;-83
2023/10/23 06:42:12;;;;;;;18.65;14.15;;;;;;;;;;5077141;28;20045;-84
2023/10/23 06:44:39;;;;;;;18.25;13.43;;;;;;;;;;5063690;28;20162;-84
2023/10/23 06:47:05;;;;;;;22.02;14.70;;;;;;;;;;5076361;28;20119;-84
2023/10/23 06:49:31;;;;;;;15.48;12.98;;;;;;;;;;5059820;28;20143;-84
2023/10/23 06:51:57;;;;;;;18.40;13.65;;;;;;;;;;5079680;28;20057;-83
2023/10/23 06:54:24;;;;;;;17.30;12.90;;;;;;;;;;5074200;28;20048;-83
2023/10/23 06:56:50;;;;;;;16.33;12.80;;;;;;;;;;5080074;28;20051;-84
2023/10/23 06:59:16;;;;;;;19.10;12.45;;;;;;;;;;5092279;28;20108;-83
2023/10/23 07:01:42;;;;;;;19.10;13.23;;;;;;;;;;5053339;28;20055;-84
2023/10/23 07:04:08;;;;;;;16.70;13.38;;;;;;;;;;5078999;28;20044;-83
2023/10/23 07:06:34;;;;;;;18.17;14.93;;;;;;;;;;5082027;28;20447;-83
2023/10/23 07:09:00;;;;;;;22.35;15.75;;;;;;;;;;5083190;28;20543;-83
2023/10/23 07:11:26;;;;;;;23.40;15.77;;;;;;;;;;5084459;28;20546;-83
2023/10/23 07:13:52;;;;;;;22.95;16.52;;;;;;;;;;5082885;28;20486;-84
2023/10/23 07:16:18;;;;;;;36.03;16.58;;;;;;;;;;5061417;28;20396;-83
2023/10/23 07:18:45;;;;;;;103.53;15.95;;;;;;;;;;5083736;28;20055;-84
2023/10/23 07:21:11;;;;;;;128.23;15.98;;;;;;;;;;5083965;28;20052;-83
2023/10/23 07:23:37;;;;;;;134.00;15.48;;;;;;;;;;5077840;28;20435;-83
2023/10/23 07:26:07;;;;;;;101.25;15.82;;;;;;;;;;5072685;28;20497;-83
2023/10/23 07:28:33;;;;;;;117.40;15.32;;;;;;;;;;5077209;28;20053;-83
2023/10/23 07:31:02;;;;;;;197.95;18.45;;;;;;;;;;5080979;28;20056;-83
2023/10/23 07:33:28;;;;;;;119.78;15.68;;;;;;;;;;5083047;28;20399;-83
2023/10/23 07:36:04;;;;;;;125.43;15.77;;;;;;;;;;5082739;28;20048;-83
2023/10/23 07:38:30;;;;;;;131.60;16.48;;;;;;;;;;5083371;28;20465;-83
2023/10/23 07:40:57;;;;;;;119.53;16.85;;;;;;;;;;5082524;28;20124;-83
2023/10/23 07:43:24;;;;;;;130.43;17.92;;;;;;;;;;5083091;28;20094;-83
2023/10/23 07:45:50;;;;;;;102.40;18.58;;;;;;;;;;5083110;28;20060;-83
2023/10/23 07:48:17;;;;;;;54.42;16.33;;;;;;;;;;5083576;28;20053;-83
2023/10/23 07:50:43;;;;;;;37.50;15.07;;;;;;;;;;5065593;28;20127;-83
2023/10/23 07:53:09;;;;;;;50.72;16.58;;;;;;;;;;5082047;28;20052;-84
2023/10/23 07:55:37;;;;;;;27.30;14.15;;;;;;;;;;5099177;28;20122;-83
2023/10/23 07:58:03;;;;;;;26.52;14.60;;;;;;;;;;5098454;28;20377;-84
2023/10/23 08:00:29;;;;;;;22.25;13.68;;;;;;;;;;5082389;28;20048;-83
2023/10/23 08:02:56;;;;;;;26.95;14.63;;;;;;;;;;5081423;28;20045;-83
2023/10/23 08:05:22;;;;;;;16.90;13.05;;;;;;;;;;5067490;28;20059;-83
2023/10/23 08:07:48;;;;;;;18.20;15.20;;;;;;;;;;5078674;28;20424;-84
2023/10/23 08:10:14;;;;;;;18.23;14.57;;;;;;;;;;5074122;28;20052;-84
2023/10/23 08:12:41;;;;;;;16.73;14.52;;;;;;;;;;5080270;28;20040;-84
2023/10/23 08:15:07;;;;;;;18.88;15.75;;;;;;;;;;5096479;28;20049;-84
2023/10/23 08:17:34;;;;;;;21.42;17.00;;;;;;;;;;5082054;28;20048;-83
2023/10/23 08:20:00;;;;;;;23.77;17.88;;;;;;;;;;5063616;28;20272;-83
2023/10/23 08:22:26;;;;;;;31.08;19.35;;;;;;;;;;5063572;28;20051;-84
2023/10/23 08:24:52;;;;;;;59.63;19.58;;;;;;;;;;5081847;28;20049;-84
2023/10/23 08:27:18;;;;;;;57.00;19.05;;;;;;;;;;5081166;28;20049;-83
2023/10/23 08:29:44;;;;;;;72.43;20.13;;;;;;;;;;5079176;28;20055;-84
2023/10/23 08:32:12;;;;;;;83.10;17.75;;;;;;;;;;5063044;28;20052;-84
2023/10/23 08:34:38;;;;;;;89.47;18.90;;;;;;;;;;5083066;28;20047;-85
2023/10/23 08:37:04;;;;;;;91.65;17.80;;;;;;;;;;5064544;28;20045;-84
2023/10/23 08:39:30;;;;;;;100.07;15.20;;;;;;;;;;5082020;28;20445;-84
2023/10/23 08:41:57;;;;;;;143.77;17.92;;;;;;;;;;5082068;28;20103;-84
2023/10/23 08:44:23;;;;;;;120.32;16.30;;;;;;;;;;5064794;28;20067;-84
2023/10/23 08:46:50;;;;;;;88.32;16.00;;;;;;;;;;5067466;28;20079;-84
2023/10/23 08:49:16;;;;;;;93.43;17.52;;;;;;;;;;5082313;28;20048;-84
2023/10/23 08:51:43;;;;;;;119.75;18.02;;;;;;;;;;5064609;28;20032;-84
2023/10/23 08:54:13;;;;;;;118.28;16.70;;;;;;;;;;5080112;28;20385;-79
2023/10/23 08:56:42;;;;;;;89.55;15.18;;;;;;;;;;5078179;28;20048;-79
2023/10/23 08:59:09;;;;;;;142.80;17.23;;;;;;;;;;5060452;28;20048;-80
2023/10/23 09:01:35;;;;;;;49.28;14.40;;;;;;;;;;5079787;28;20112;-79
2023/10/23 09:04:01;;;;;;;97.95;16.13;;;;;;;;;;5078070;28;20507;-79
2023/10/23 09:06:27;;;;;;;81.90;17.63;;;;;;;;;;5078152;28;20458;-79
2023/10/23 09:08:53;;;;;;;84.95;18.08;;;;;;;;;;5089112;28;20044;-84
2023/10/23 09:11:22;;;;;;;148.00;17.65;;;;;;;;;;5078688;28;20045;-79
2023/10/23 09:13:48;;;;;;;82.82;17.40;;;;;;;;;;5063818;28;20108;-79
2023/10/23 09:16:14;;;;;;;137.65;21.67;;;;;;;;;;5075468;28;20059;-79
2023/10/23 09:18:51;;;;;;;91.50;17.58;;;;;;;;;;5077139;28;20077;-79
2023/10/23 09:21:17;;;;;;;73.18;16.02;;;;;;;;;;5076273;28;20052;-79
2023/10/23 09:23:49;;;;;;;64.60;16.77;;;;;;;;;;5074138;28;20045;-79
2023/10/23 09:26:15;;;;;;;74.78;16.48;;;;;;;;;;5043330;28;20067;-79
2023/10/23 09:28:41;;;;;;;87.80;16.65;;;;;;;;;;5061615;28;20056;-79
2023/10/23 09:31:07;;;;;;;60.95;18.80;;;;;;;;;;5077896;28;20052;-79
2023/10/23 09:33:33;;;;;;;88.00;18.70;;;;;;;;;;5079003;28;20048;-80
2023/10/23 09:36:00;;;;;;;69.50;17.23;;;;;;;;;;5055306;28;20123;-79
2023/10/23 09:38:27;;;;;;;96.95;17.60;;;;;;;;;;5058772;28;20048;-79
2023/10/23 09:41:00;;;;;;;37.78;15.70;;;;;;;;;;5077665;28;20477;-79
2023/10/23 09:43:26;;;;;;;109.93;18.30;;;;;;;;;;5074800;28;20060;-80
2023/10/23 09:45:52;;;;;;;75.00;17.33;;;;;;;;;;5075734;28;20048;-80
2023/10/23 09:48:19;;;;;;;53.22;15.35;;;;;;;;;;5077203;28;20045;-78
2023/10/23 09:50:48;;;;;;;72.63;15.40;;;;;;;;;;5077933;28;20052;-80
2023/10/23 09:53:16;;;;;;;51.08;17.10;;;;;;;;;;5076965;28;20057;-79
2023/10/23 09:55:44;;;;;;;42.67;16.42;;;;;;;;;;5077263;28;20036;-80
2023/10/23 09:58:14;;;;;;;102.00;16.33;;;;;;;;;;5077404;28;20036;-79
2023/10/23 10:00:43;;;;;;;154.18;16.38;;;;;;;;;;5077589;28;20481;-79
2023/10/23 10:03:11;;;;;;;165.73;18.00;;;;;;;;;;5077234;28;20052;-78
2023/10/23 10:05:50;;;;;;;61.22;15.95;;;;;;;;;;5076814;28;20117;-79
2023/10/23 10:08:19;;;;;;;79.45;17.92;;;;;;;;;;5077073;28;20048;-79
2023/10/23 10:10:45;;;;;;;63.00;17.52;;;;;;;;;;5077486;28;20177;-79
2023/10/23 10:13:11;;;;;;;23.52;15.45;;;;;;;;;;5077433;28;20040;-79
2023/10/23 10:15:38;;;;;;;29.17;16.45;;;;;;;;;;5076519;28;20052;-79
2023/10/23 10:18:04;;;;;;;40.08;15.95;;;;;;;;;;5057828;28;20037;-79
2023/10/23 10:20:31;;;;;;;19.92;14.80;;;;;;;;;;5073314;28;20052;-79
2023/10/23 10:23:14;;;;;;;27.90;17.13;;;;;;;;;;5075467;28;20037;-79
2023/10/23 10:25:40;;;;;;;24.27;16.85;;;;;;;;;;5074828;28;20044;-79
2023/10/23 10:28:07;;;;;;;25.52;14.95;;;;;;;;;;5073769;28;20086;-78
2023/10/23 10:30:49;;;;;;;27.23;17.27;;;;;;;;;;5072017;28;20044;-79
2023/10/23 10:33:17;;;;;;;25.25;15.80;;;;;;;;;;5060116;28;20048;-78
2023/10/23 10:35:49;;;;;;;23.20;15.73;;;;;;;;;;5077484;28;20089;-78
2023/10/23 10:38:19;;;;;;;23.00;17.25;;;;;;;;;;5065493;28;20436;-78
2023/10/23 10:40:56;;;;;;;20.85;15.63;;;;;;;;;;5059111;28;20470;-78
2023/10/23 10:43:23;;;;;;;31.25;15.85;;;;;;;;;;5078034;28;20485;-79
2023/10/23 10:45:49;;;;;;;29.40;16.67;;;;;;;;;;5060122;28;20053;-78
2023/10/23 10:48:15;;;;;;;19.20;14.43;;;;;;;;;;5080843;28;20053;-79
2023/10/23 10:50:42;;;;;;;27.48;16.13;;;;;;;;;;5042800;28;20119;-80
2023/10/23 10:53:08;;;;;;;25.33;16.55;;;;;;;;;;5063028;28;20057;-80
2023/10/23 10:55:35;;;;;;;22.13;17.15;;;;;;;;;;5078847;28;20097;-80
2023/10/23 10:58:02;;;;;;;24.38;17.90;;;;;;;;;;5076536;28;20045;-80
2023/10/23 11:00:29;;;;;;;22.35;17.23;;;;;;;;;;5079883;28;20049;-79
2023/10/23 11:02:56;;;;;;;26.88;18.65;;;;;;;;;;5067247;28;20051;-81
2023/10/23 11:05:22;;;;;;;22.88;18.52;;;;;;;;;;5076632;28;20040;-79
2023/10/23 11:07:51;;;;;;;31.13;19.70;;;;;;;;;;5079057;28;20389;-80
2023/10/23 11:10:17;;;;;;;29.52;19.88;;;;;;;;;;5077803;28;20075;-80
2023/10/23 11:12:43;;;;;;;28.60;19.77;;;;;;;;;;5080188;28;20115;-82
2023/10/23 11:15:09;;;;;;;29.42;20.27;;;;;;;;;;5062129;28;20044;-80
2023/10/23 11:17:36;;;;;;;26.65;19.50;;;;;;;;;;5079429;28;20362;-80
2023/10/23 11:20:06;;;;;;;34.63;22.25;;;;;;;;;;5079395;28;20048;-80
2023/10/23 11:22:32;;;;;;;43.38;23.45;;;;;;;;;;5080000;28;20095;-78
2023/10/23 11:24:58;;;;;;;40.20;25.33;;;;;;;;;;5075940;28;20047;-80
2023/10/23 11:27:24;;;;;;;41.53;25.30;;;;;;;;;;5061529;28;21234;-80
2023/10/23 11:29:50;;;;;;;44.25;24.88;;;;;;;;;;5063566;28;20369;-80
2023/10/23 11:32:17;;;;;;;45.47;24.85;;;;;;;;;;5080198;28;20052;-79
2023/10/23 11:34:43;;;;;;;39.90;24.25;;;;;;;;;;5061110;28;20549;-81
2023/10/23 11:37:10;;;;;;;57.00;26.30;;;;;;;;;;5079234;28;20409;-79
2023/10/23 11:39:38;;;;;;;54.05;27.33;;;;;;;;;;5077856;28;20048;-79
2023/10/23 11:42:04;;;;;;;52.28;28.15;;;;;;;;;;5060735;28;20049;-80
2023/10/23 11:44:31;;;;;;;53.92;29.67;;;;;;;;;;5079618;28;20071;-80
2023/10/23 11:46:58;;;;;;;57.13;30.17;;;;;;;;;;5079947;28;20040;-80
2023/10/23 11:49:24;;;;;;;64.88;33.60;;;;;;;;;;5079840;28;20069;-81
2023/10/23 11:51:54;;;;;;;60.30;31.63;;;;;;;;;;5077426;28;20048;-80
2023/10/23 11:54:20;;;;;;;59.88;32.97;;;;;;;;;;5077285;28;20048;-79
2023/10/23 11:56:46;;;;;;;58.05;29.95;;;;;;;;;;5078310;28;20152;-80
2023/10/23 11:59:16;;;;;;;52.13;29.40;;;;;;;;;;5079154;28;20106;-79
2023/10/23 12:01:42;;;;;;;48.20;29.77;;;;;;;;;;5062112;28;20041;-80
2023/10/23 12:04:08;;;;;;;47.20;28.65;;;;;;;;;;5076116;28;20048;-79
2023/10/23 12:06:35;;;;;;;49.33;29.95;;;;;;;;;;5084608;28;20059;-81
2023/10/23 12:09:02;;;;;;;44.28;29.35;;;;;;;;;;5080097;28;20136;-80
2023/10/23 12:11:28;;;;;;;47.22;28.77;;;;;;;;;;5080561;28;20107;-80
2023/10/23 12:13:56;;;;;;;43.75;29.48;;;;;;;;;;5078377;28;20048;-80
2023/10/23 12:16:23;;;;;;;44.60;28.98;;;;;;;;;;5079270;28;20048;-80
2023/10/23 12:18:49;;;;;;;42.50;28.83;;;;;;;;;;5079328;28;20055;-80
2023/10/23 12:21:15;;;;;;;40.92;28.35;;;;;;;;;;5077895;28;20485;-81
2023/10/23 12:23:41;;;;;;;40.15;27.15;;;;;;;;;;5061038;28;20063;-81
2023/10/23 12:26:07;;;;;;;33.35;24.92;;;;;;;;;;5078835;28;20051;-81
2023/10/23 12:28:34;;;;;;;34.55;25.65;;;;;;;;;;5078685;28;20068;-80
2023/10/23 12:31:00;;;;;;;35.10;25.60;;;;;;;;;;5079892;28;20056;-81
2023/10/23 12:33:26;;;;;;;33.22;24.98;;;;;;;;;;5079690;28;20049;-80
2023/10/23 12:35:52;;;;;;;33.28;22.95;;;;;;;;;;5061321;28;20043;-80
2023/10/23 12:38:18;;;;;;;31.65;24.70;;;;;;;;;;5079052;28;20044;-80
2023/10/23 12:40:46;;;;;;;32.85;24.25;;;;;;;;;;5060759;28;20045;-81
2023/10/23 12:43:12;;;;;;;30.25;22.45;;;;;;;;;;5080053;28;20049;-80
2023/10/23 12:45:38;;;;;;;29.05;21.58;;;;;;;;;;5079507;28;20084;-81
2023/10/23 12:48:04;;;;;;;26.92;21.80;;;;;;;;;;5080687;28;20051;-80
2023/10/23 12:50:30;;;;;;;27.23;21.48;;;;;;;;;;5048399;28;20057;-80
2023/10/23 12:52:57;;;;;;;26.08;20.73;;;;;;;;;;5077899;28;20044;-79
2023/10/23 12:55:23;;;;;;;29.13;21.70;;;;;;;;;;5059192;28;20469;-80
2023/10/23 12:57:49;;;;;;;27.30;21.02;;;;;;;;;;5079063;28;20041;-79
2023/10/23 13:00:16;;;;;;;27.08;20.95;;;;;;;;;;5058986;28;20040;-80
2023/10/23 13:02:45;;;;;;;29.00;20.98;;;;;;;;;;5062646;28;20083;-80
2023/10/23 13:05:11;;;;;;;25.60;19.63;;;;;;;;;;5062061;28;20049;-80
2023/10/23 13:07:37;;;;;;;26.58;21.05;;;;;;;;;;5078561;28;20094;-80
2023/10/23 13:10:04;;;;;;;24.92;19.98;;;;;;;;;;5078373;28;20119;-80
2023/10/23 13:12:30;;;;;;;26.63;20.58;;;;;;;;;;5077472;28;20052;-80
2023/10/23 13:14:56;;;;;;;26.73;20.65;;;;;;;;;;5079082;28;20055;-80
2023/10/23 13:17:23;;;;;;;26.15;21.58;;;;;;;;;;5061236;28;20393;-80
2023/10/23 13:19:49;;;;;;;26.88;20.38;;;;;;;;;;5071214;28;20055;-80
2023/10/23 13:22:15;;;;;;;25.88;21.35;;;;;;;;;;5078527;28;20075;-80
2023/10/23 13:24:42;;;;;;;26.67;21.33;;;;;;;;;;5078375;28;20048;-80
2023/10/23 13:27:08;;;;;;;28.48;21.85;;;;;;;;;;5078051;28;20059;-79
2023/10/23 13:29:34;;;;;;;27.67;22.38;;;;;;;;;;5077527;28;20053;-80
2023/10/23 13:32:00;;;;;;;31.70;23.48;;;;;;;;;;5078013;28;20049;-81
2023/10/23 13:34:26;;;;;;;30.70;24.10;;;;;;;;;;5080144;28;20095;-83
2023/10/23 13:36:52;;;;;;;31.05;23.05;;;;;;;;;;5061582;28;20048;-83
2023/10/23 13:39:19;;;;;;;31.15;24.77;;;;;;;;;;5080362;28;20047;-83
2023/10/23 13:41:46;;;;;;;33.40;24.55;;;;;;;;;;5062610;28;20153;-83
2023/10/23 13:44:12;;;;;;;30.33;22.30;;;;;;;;;;5080395;28;20040;-84
2023/10/23 13:46:38;;;;;;;33.10;22.48;;;;;;;;;;5079515;28;20056;-84
2023/10/23 13:49:04;;;;;;;29.58;21.27;;;;;;;;;;5080043;28;20044;-84
2023/10/23 13:51:30;;;;;;;26.70;21.15;;;;;;;;;;5079582;28;20085;-84
2023/10/23 13:53:56;;;;;;;25.80;20.73;;;;;;;;;;5079687;28;20071;-84
2023/10/23 13:56:22;;;;;;;30.55;22.48;;;;;;;;;;5080203;28;20123;-84
2023/10/23 13:58:48;;;;;;;33.22;23.10;;;;;;;;;;5079322;28;20055;-84
2023/10/23 14:01:15;;;;;;;31.50;23.23;;;;;;;;;;5062327;28;20104;-83
2023/10/23 14:03:41;;;;;;;30.88;23.65;;;;;;;;;;5059966;28;20052;-83
2023/10/23 14:06:07;;;;;;;31.98;22.52;;;;;;;;;;5073171;28;20047;-83
2023/10/23 14:08:34;;;;;;;34.78;24.23;;;;;;;;;;5061475;28;20056;-84
2023/10/23 14:11:00;;;;;;;31.00;23.63;;;;;;;;;;5061152;28;20037;-83
2023/10/23 14:13:26;;;;;;;33.88;24.33;;;;;;;;;;5080299;28;20044;-84
2023/10/23 14:15:52;;;;;;;29.13;22.42;;;;;;;;;;5062684;28;20036;-83